Time;durP1;ratioP1;P1;durP2;ratioP2;P2;SDS_P1;SDS_P2;PMS_P1;PMS_P2;Temp;Humidity;BMP_temperature;BMP_pressure;BME280_temperature;BME280_humidity;BME280_pressure;Samples;Min_cycle;Max_cycle;Signal;HPM_P1;HPM_P2
2023/10/19 00:03:55;;;;;;;0.77;0.77;;;;;;;19.21;100.00;99359.66;10412846;28;20037;-84
2023/10/19 00:08:59;;;;;;;0.30;0.30;;;;;;;18.49;100.00;99358.50;10430989;28;20444;-85
2023/10/19 00:14:03;;;;;;;0.63;0.50;;;;;;;18.02;100.00;99355.63;10411650;28;20042;-83
2023/10/19 00:19:05;;;;;;;0.35;0.25;;;;;;;18.29;100.00;99351.28;10426688;28;20054;-84
2023/10/19 00:24:07;;;;;;;0.45;0.20;;;;;;;17.83;100.00;99332.66;10424145;28;20034;-82
2023/10/19 00:34:31;;;;;;;0.20;0.15;;;;;;;17.82;100.00;99319.69;10421539;28;20128;-83
2023/10/19 00:39:43;;;;;;;1.27;0.65;;;;;;;18.66;100.00;99308.41;10422428;28;20045;-83
2023/10/19 00:44:49;;;;;;;0.38;0.32;;;;;;;19.13;100.00;99306.88;10429869;28;20041;-84
2023/10/19 00:49:52;;;;;;;0.40;0.30;;;;;;;18.35;100.00;99314.63;10408844;28;20050;-83
2023/10/19 00:54:58;;;;;;;0.77;0.50;;;;;;;19.22;100.00;99295.25;10414520;28;20042;-85
2023/10/19 01:00:11;;;;;;;1.95;0.47;;;;;;;19.21;100.00;99283.97;10417366;28;20504;-84
2023/10/19 01:05:13;;;;;;;0.77;0.52;;;;;;;19.49;100.00;99278.59;10420841;28;20041;-84
2023/10/19 01:10:20;;;;;;;2.60;0.65;;;;;;;19.17;100.00;99287.59;10423788;28;20099;-84
2023/10/19 01:30:58;;;;;;;1.48;0.63;;;;;;;19.96;100.00;99290.78;10432931;28;20049;-84
2023/10/19 01:36:10;;;;;;;0.68;0.68;;;;;;;19.47;100.00;99305.69;10410814;28;20077;-83
2023/10/19 01:41:18;;;;;;;0.30;0.30;;;;;;;20.09;100.00;99299.03;10417496;28;20496;-83
2023/10/19 01:46:33;;;;;;;1.13;0.68;;;;;;;19.51;100.00;99286.38;10416526;28;20116;-83
2023/10/19 01:51:38;;;;;;;0.88;0.45;;;;;;;19.43;100.00;99273.59;10407443;28;20223;-83
2023/10/19 01:56:42;;;;;;;0.65;0.38;;;;;;;19.54;100.00;99265.38;10413371;28;20100;-83
2023/10/19 02:01:45;;;;;;;0.82;0.75;;;;;;;20.13;100.00;99263.97;10408819;28;20128;-83
2023/10/19 02:06:48;;;;;;;2.30;1.10;;;;;;;20.84;100.00;99252.41;10398965;28;20072;-84
2023/10/19 02:11:58;;;;;;;0.75;0.55;;;;;;;20.39;100.00;99242.91;10396015;28;20420;-84
2023/10/19 02:17:03;;;;;;;;;;;;;;;19.70;100.00;99238.63;10400292;28;20066;-83
2023/10/19 02:22:11;;;;;;;0.30;0.30;;;;;;;20.61;100.00;99225.41;10415021;28;20459;-83
2023/10/19 02:27:13;;;;;;;0.85;0.50;;;;;;;20.11;100.00;99233.59;10414836;28;20049;-83
2023/10/19 02:32:33;;;;;;;1.35;0.82;;;;;;;20.72;100.00;99224.13;10393808;28;20049;-84
2023/10/19 02:37:34;;;;;;;0.80;0.65;;;;;;;20.73;100.00;99220.63;10398358;28;20053;-82
2023/10/19 02:42:36;;;;;;;3.70;0.50;;;;;;;20.31;100.00;99216.22;10404725;28;20048;-83
2023/10/19 02:47:41;;;;;;;0.65;0.45;;;;;;;20.39;100.00;99211.53;10397782;28;20053;-83
2023/10/19 02:52:43;;;;;;;0.35;0.28;;;;;;;21.72;100.00;99210.94;10393374;28;20045;-83
2023/10/19 02:57:46;;;;;;;2.08;0.80;;;;;;;21.22;100.00;99202.72;10414683;28;20481;-83
2023/10/19 03:02:51;;;;;;;3.40;1.35;;;;;;;21.06;100.00;99204.31;10413692;28;20052;-82
2023/10/19 03:07:53;;;;;;;0.22;0.22;;;;;;;20.97;100.00;99192.50;10414125;28;20443;-83
2023/10/19 03:12:57;;;;;;;0.40;0.30;;;;;;;20.82;100.00;99204.50;10397891;28;20068;-83
2023/10/19 03:18:01;;;;;;;0.70;0.55;;;;;;;21.13;100.00;99207.53;10397032;28;20049;-83
2023/10/19 03:23:03;;;;;;;0.80;0.75;;;;;;;20.90;100.00;99215.47;10413459;28;20137;-81
2023/10/19 03:28:16;;;;;;;0.25;0.22;;;;;;;21.08;100.00;99202.50;10391290;28;20042;-82
2023/10/19 03:33:18;;;;;;;4.63;1.80;;;;;;;21.73;100.00;99193.47;10414028;28;20053;-82
2023/10/19 03:38:22;;;;;;;0.50;0.38;;;;;;;21.33;100.00;99197.00;10396540;28;20058;-83
2023/10/19 03:43:27;;;;;;;0.55;0.40;;;;;;;21.39;100.00;99203.72;10413279;28;20049;-81
2023/10/19 03:48:34;;;;;;;1.05;0.85;;;;;;;21.32;100.00;99202.31;10412540;28;20045;-82
2023/10/19 03:53:37;;;;;;;0.10;0.10;;;;;;;20.80;100.00;99201.13;10389485;28;20049;-81
2023/10/19 03:58:40;;;;;;;0.93;0.75;;;;;;;20.75;100.00;99189.97;10412822;28;20061;-83
2023/10/19 04:03:43;;;;;;;0.32;0.28;;;;;;;21.47;100.00;99191.13;10413257;28;20049;-83
2023/10/19 04:08:50;;;;;;;0.80;0.55;;;;;;;22.19;100.00;99181.56;10413181;28;20073;-83
2023/10/19 04:13:53;;;;;;;1.20;0.35;;;;;;;22.02;100.00;99177.19;10413633;28;20045;-84
2023/10/19 04:18:54;;;;;;;0.77;0.57;;;;;;;22.89;100.00;99167.56;10413781;28;20079;-83
2023/10/19 04:23:56;;;;;;;0.95;0.85;;;;;;;22.99;100.00;99167.91;10421392;28;20038;-83
2023/10/19 04:28:58;;;;;;;0.95;0.50;;;;;;;22.95;100.00;99166.41;10421600;28;20140;-83
2023/10/19 04:34:06;;;;;;;0.40;0.30;;;;;;;22.41;100.00;99162.16;10420529;28;20056;-84
2023/10/19 04:39:13;;;;;;;0.00;0.00;;;;;;;22.61;100.00;99161.16;10420521;28;20052;-83
2023/10/19 04:44:15;;;;;;;1.02;0.50;;;;;;;22.61;100.00;99163.78;10419510;28;20037;-83
2023/10/19 04:49:17;;;;;;;0.60;0.50;;;;;;;22.96;100.00;99158.44;10403011;28;20071;-84
2023/10/19 04:54:19;;;;;;;0.52;0.40;;;;;;;23.26;100.00;99155.09;10419119;28;20084;-84
2023/10/19 04:59:20;;;;;;;0.22;0.15;;;;;;;23.57;100.00;99158.66;10403326;28;20053;-84
2023/10/19 05:04:22;;;;;;;0.30;0.20;;;;;;;23.35;100.00;99159.00;10402682;28;20099;-83
2023/10/19 05:09:24;;;;;;;0.03;0.03;;;;;;;23.77;100.00;99157.53;10402503;28;20053;-83
2023/10/19 05:14:25;;;;;;;0.20;0.20;;;;;;;23.66;100.00;99161.72;10418871;28;20042;-84
2023/10/19 05:19:27;;;;;;;0.45;0.40;;;;;;;23.35;100.00;99169.50;10402287;28;20111;-84
2023/10/19 05:24:29;;;;;;;0.63;0.60;;;;;;;23.10;100.00;99170.84;10401944;28;20140;-84
2023/10/19 05:29:35;;;;;;;0.08;0.08;;;;;;;23.18;100.00;99161.72;10402094;28;20140;-84
2023/10/19 05:34:37;;;;;;;0.25;0.22;;;;;;;23.07;100.00;99164.91;10400662;28;20046;-84
2023/10/19 05:39:39;;;;;;;0.25;0.25;;;;;;;23.21;100.00;99166.78;10417931;28;20063;-84
2023/10/19 05:44:40;;;;;;;0.10;0.10;;;;;;;22.80;100.00;99179.41;10401757;28;20045;-84
2023/10/19 05:49:42;;;;;;;0.15;0.15;;;;;;;22.76;100.00;99183.09;10417425;28;20136;-84
2023/10/19 05:54:44;;;;;;;0.22;0.20;;;;;;;22.17;100.00;99183.41;10417750;28;20041;-84
2023/10/19 05:59:46;;;;;;;1.55;0.65;;;;;;;22.16;100.00;99192.22;10402260;28;20058;-84
2023/10/19 06:04:49;;;;;;;0.50;0.40;;;;;;;22.78;100.00;99185.66;10418584;28;20128;-84
2023/10/19 06:09:51;;;;;;;0.63;0.30;;;;;;;22.32;100.00;99183.56;10417131;28;20496;-84
2023/10/19 06:14:53;;;;;;;0.20;0.20;;;;;;;23.04;100.00;99186.06;10417273;28;20050;-84
2023/10/19 06:19:55;;;;;;;1.55;0.52;;;;;;;23.01;100.00;99205.44;10415968;28;20492;-84
2023/10/19 06:24:57;;;;;;;1.75;0.70;;;;;;;22.47;100.00;99203.00;10399312;28;20046;-84
2023/10/19 06:29:59;;;;;;;0.93;0.68;;;;;;;21.50;100.00;99214.53;10415674;28;20489;-83
2023/10/19 06:35:01;;;;;;;0.30;0.20;;;;;;;22.01;100.00;99219.19;10399568;28;20144;-84
2023/10/19 06:40:06;;;;;;;0.70;0.70;;;;;;;21.77;100.00;99224.72;10415255;28;20079;-84
2023/10/19 06:45:09;;;;;;;0.32;0.32;;;;;;;21.68;100.00;99217.28;10398300;28;20046;-85
2023/10/19 06:50:15;;;;;;;0.35;0.30;;;;;;;22.29;100.00;99225.72;10414628;28;20048;-85
2023/10/19 06:55:21;;;;;;;0.93;0.40;;;;;;;22.55;100.00;99219.19;10414358;28;20041;-84
2023/10/19 07:00:27;;;;;;;0.20;0.10;;;;;;;22.80;100.00;99220.53;10415379;28;20112;-84
2023/10/19 07:05:30;;;;;;;0.65;0.38;;;;;;;22.86;100.00;99219.38;10397839;28;20571;-85
2023/10/19 07:10:32;;;;;;;0.35;0.30;;;;;;;23.05;100.00;99224.53;10389689;28;20497;-83
2023/10/19 07:15:34;;;;;;;1.10;0.50;;;;;;;23.36;100.00;99231.63;10396603;28;20044;-83
2023/10/19 07:20:38;;;;;;;0.28;0.15;;;;;;;23.18;100.00;99233.47;10413878;28;20049;-83
2023/10/19 07:25:43;;;;;;;0.43;0.30;;;;;;;23.23;100.00;99241.13;10414629;28;20042;-83
2023/10/19 07:30:46;;;;;;;0.35;0.17;;;;;;;22.96;100.00;99252.13;10413361;28;20132;-83
2023/10/19 07:35:59;;;;;;;0.10;0.10;;;;;;;23.23;100.00;99256.88;10396629;28;20416;-83
2023/10/19 07:41:01;;;;;;;0.40;0.30;;;;;;;23.66;100.00;99257.19;10412686;28;20504;-84
2023/10/19 07:46:04;;;;;;;0.30;0.30;;;;;;;22.89;100.00;99251.59;10396636;28;20382;-82
2023/10/19 07:51:05;;;;;;;0.00;0.00;;;;;;;23.21;100.00;99256.09;10411851;28;20077;-83
2023/10/19 07:56:08;;;;;;;0.20;0.17;;;;;;;23.12;100.00;99257.41;10408332;28;20045;-83
2023/10/19 08:01:11;;;;;;;0.10;0.03;;;;;;;24.22;100.00;99260.22;10419760;28;20045;-83
2023/10/19 08:06:13;;;;;;;0.15;0.13;;;;;;;23.65;100.00;99263.38;10389817;28;20041;-83
2023/10/19 08:11:16;;;;;;;0.22;0.13;;;;;;;23.65;100.00;99260.75;10394651;28;20128;-83
2023/10/19 08:16:18;;;;;;;0.20;0.20;;;;;;;23.99;100.00;99253.66;10418868;28;20049;-83
2023/10/19 08:21:21;;;;;;;0.50;0.40;;;;;;;24.22;100.00;99248.88;10395886;28;20054;-83
2023/10/19 08:26:22;;;;;;;0.70;0.28;;;;;;;24.82;100.00;99257.72;10419124;28;20044;-84
2023/10/19 08:31:24;;;;;;;0.45;0.08;;;;;;;25.23;100.00;99254.34;10410802;28;20041;-83
2023/10/19 08:36:27;;;;;;;0.20;0.20;;;;;;;24.10;100.00;99260.06;10395179;28;20584;-83
2023/10/19 08:41:32;;;;;;;0.13;0.13;;;;;;;25.17;100.00;99255.56;10394042;28;20053;-83
2023/10/19 08:46:35;;;;;;;0.20;0.20;;;;;;;25.22;100.00;99260.56;10401470;28;20052;-83
2023/10/19 08:51:37;;;;;;;0.10;0.10;;;;;;;25.13;100.00;99256.72;10416990;28;20103;-83
2023/10/19 08:56:44;;;;;;;0.98;0.50;;;;;;;25.11;100.00;99249.84;10372502;28;20049;-83
2023/10/19 09:01:46;;;;;;;0.32;0.32;;;;;;;25.25;100.00;99241.94;10405117;28;20046;-83
2023/10/19 09:06:49;;;;;;;0.10;0.10;;;;;;;26.35;100.00;99245.56;10384090;28;20065;-84
2023/10/19 09:11:54;;;;;;;0.20;0.17;;;;;;;25.59;100.00;99247.75;10393466;28;20054;-83
2023/10/19 09:16:57;;;;;;;0.20;0.20;;;;;;;25.60;100.00;99238.91;10407757;28;20038;-84
2023/10/19 09:21:59;;;;;;;0.45;0.35;;;;;;;25.74;100.00;99234.53;10399890;28;20415;-84
2023/10/19 09:27:04;;;;;;;0.10;0.10;;;;;;;24.57;100.00;99232.81;10403285;28;20049;-83
2023/10/19 09:32:07;;;;;;;0.43;0.22;;;;;;;25.78;100.00;99221.06;10415044;28;20053;-84
2023/10/19 09:37:11;;;;;;;0.77;0.22;;;;;;;26.05;100.00;99228.13;10407091;28;20045;-83
2023/10/19 09:42:17;;;;;;;0.50;0.20;;;;;;;24.54;100.00;99225.94;10405656;28;20057;-83
2023/10/19 09:47:29;;;;;;;0.98;0.45;;;;;;;24.81;100.00;99224.41;10413792;28;20037;-83
2023/10/19 09:52:31;;;;;;;1.02;0.43;;;;;;;24.67;100.00;99231.38;10401464;28;20042;-84
2023/10/19 09:57:45;;;;;;;0.35;0.15;;;;;;;24.27;100.00;99233.66;10397868;28;20057;-83
2023/10/19 10:02:47;;;;;;;0.68;0.10;;;;;;;25.52;100.00;99225.34;10398635;28;20049;-84
2023/10/19 10:08:18;;;;;;;0.20;0.10;;;;;;;25.12;100.00;99238.38;10393395;28;20045;-83
2023/10/19 10:13:36;;;;;;;3.10;0.15;;;;;;;26.35;100.00;99234.16;10405320;28;20045;-83
2023/10/19 10:18:40;;;;;;;0.00;0.00;;;;;;;26.98;100.00;99215.84;10406338;28;20053;-84
2023/10/19 10:23:48;;;;;;;0.00;0.00;;;;;;;26.49;100.00;99230.59;10400639;28;20047;-84
2023/10/19 10:29:09;;;;;;;0.55;0.08;;;;;;;25.34;100.00;99232.59;10400697;28;20033;-83
2023/10/19 10:34:31;;;;;;;0.32;0.10;;;;;;;26.72;100.00;99231.66;10419127;28;20049;-83
2023/10/19 10:39:38;;;;;;;0.00;0.00;;;;;;;27.33;100.00;99233.69;10408865;28;20068;-84
2023/10/19 10:44:46;;;;;;;0.28;0.28;;;;;;;26.02;100.00;99238.06;10393473;28;20132;-84
2023/10/19 10:49:56;;;;;;;0.93;0.22;;;;;;;26.41;100.00;99239.00;10395494;28;20111;-84
2023/10/19 10:55:06;;;;;;;0.08;0.08;;;;;;;25.55;100.00;99241.00;10411551;28;20037;-83
2023/10/19 11:00:09;;;;;;;0.10;0.10;;;;;;;27.10;100.00;99222.09;10399839;28;20099;-84
2023/10/19 11:05:12;;;;;;;1.05;0.30;;;;;;;27.70;100.00;99212.56;10412414;28;20119;-84
2023/10/19 11:10:14;;;;;;;0.08;0.08;;;;;;;26.01;100.00;99208.16;10397111;28;20128;-85
2023/10/19 11:15:21;;;;;;;0.50;0.50;;;;;;;26.97;100.00;99187.75;10397253;28;20057;-84
2023/10/19 11:20:24;;;;;;;0.30;0.15;;;;;;;28.49;100.00;99167.84;10397291;28;20050;-84
2023/10/19 11:25:28;;;;;;;0.22;0.10;;;;;;;28.60;100.00;99176.78;10396707;28;20045;-85
2023/10/19 11:30:32;;;;;;;0.03;0.03;;;;;;;28.30;100.00;99173.72;10417455;28;20559;-82
2023/10/19 11:35:34;;;;;;;0.65;0.30;;;;;;;26.70;100.00;99175.44;10405529;28;20057;-85
2023/10/19 11:40:36;;;;;;;0.13;0.13;;;;;;;26.90;100.00;99171.47;10421880;28;20045;-84
2023/10/19 11:45:38;;;;;;;0.00;0.00;;;;;;;27.87;100.00;99161.03;10421618;28;20373;-84
2023/10/19 11:50:40;;;;;;;0.20;0.20;;;;;;;26.68;100.00;99156.25;10422413;28;20049;-83
2023/10/19 11:55:42;;;;;;;0.40;0.40;;;;;;;27.17;100.00;99152.81;10420528;28;20068;-85
2023/10/19 12:00:46;;;;;;;0.10;0.10;;;;;;;27.42;100.00;99151.09;10398765;28;20061;-84
2023/10/19 12:05:48;;;;;;;1.83;0.30;;;;;;;29.54;100.00;99137.63;10419843;28;20143;-83
2023/10/19 12:10:51;;;;;;;5.93;0.68;;;;;;;26.73;100.00;99149.66;10414272;28;20050;-83
2023/10/19 12:15:54;;;;;;;0.63;0.10;;;;;;;28.87;100.00;99149.13;10399561;28;20080;-83
2023/10/19 12:20:59;;;;;;;0.10;0.10;;;;;;;29.18;100.00;99146.69;10402885;28;20056;-84
2023/10/19 12:26:04;;;;;;;0.88;0.32;;;;;;;29.52;100.00;99139.53;10406806;28;20056;-83
2023/10/19 12:31:10;;;;;;;0.47;0.35;;;;;;;28.78;100.00;99133.00;10419769;28;20037;-84
2023/10/19 12:41:31;;;;;;;0.47;0.20;;;;;;;28.56;100.00;99135.63;10417605;28;20057;-84
2023/10/19 12:46:36;;;;;;;0.10;0.10;;;;;;;27.08;100.00;99148.16;10407064;28;20511;-85
2023/10/19 12:51:42;;;;;;;0.45;0.43;;;;;;;27.44;100.00;99141.22;10416382;28;20060;-84
2023/10/19 12:56:44;;;;;;;0.10;0.10;;;;;;;28.28;100.00;99132.44;10401678;28;20101;-84
2023/10/19 13:01:48;;;;;;;0.55;0.20;;;;;;;27.88;100.00;99127.50;10392996;28;20550;-83
2023/10/19 13:06:51;;;;;;;0.10;0.10;;;;;;;27.60;100.00;99109.22;10377443;28;20046;-84
2023/10/19 13:11:53;;;;;;;0.00;0.00;;;;;;;27.60;100.00;99105.72;10396349;28;20052;-86
2023/10/19 13:16:56;;;;;;;0.00;0.00;;;;;;;28.03;100.00;99100.72;10397803;28;20049;-84
2023/10/19 13:22:04;;;;;;;0.28;0.28;;;;;;;27.64;100.00;99117.78;10412196;28;20556;-83
2023/10/19 13:27:07;;;;;;;0.10;0.10;;;;;;;27.64;100.00;99113.31;10416871;28;20040;-84
2023/10/19 13:32:09;;;;;;;0.15;0.15;;;;;;;27.61;100.00;99104.75;10383536;28;20119;-83
2023/10/19 13:37:11;;;;;;;0.52;0.10;;;;;;;27.89;100.00;99100.09;10416840;28;20054;-84
2023/10/19 13:42:14;;;;;;;0.10;0.00;;;;;;;27.77;100.00;99089.44;10395756;28;20045;-84
2023/10/19 13:47:16;;;;;;;0.10;0.10;;;;;;;28.33;100.00;99090.56;10418016;28;20061;-83
2023/10/19 13:52:19;;;;;;;0.00;0.00;;;;;;;27.79;100.00;99106.06;10399548;28;20492;-84
2023/10/19 13:57:21;;;;;;;0.08;0.05;;;;;;;27.59;100.00;99112.00;10415632;28;20415;-83
2023/10/19 14:02:24;;;;;;;0.35;0.20;;;;;;;28.61;100.00;99077.81;10384899;28;20423;-84
2023/10/19 14:07:26;;;;;;;2.20;0.55;;;;;;;26.69;100.00;99078.69;10411253;28;20100;-86
2023/10/19 14:12:28;;;;;;;0.00;0.00;;;;;;;27.52;100.00;99078.03;10390022;28;20054;-85
2023/10/19 14:17:30;;;;;;;0.00;0.00;;;;;;;27.63;100.00;99084.34;10394552;28;20049;-84
2023/10/19 14:22:34;;;;;;;0.00;0.00;;;;;;;26.90;100.00;99079.84;10402892;28;20141;-85
2023/10/19 14:27:36;;;;;;;0.20;0.20;;;;;;;27.37;100.00;99065.91;10407844;28;20050;-85
2023/10/19 14:32:48;;;;;;;0.35;0.10;;;;;;;27.23;100.00;99062.50;10380388;28;20499;-85
2023/10/19 14:37:56;;;;;;;0.15;0.05;;;;;;;27.18;100.00;99069.09;10406214;28;20044;-85
2023/10/19 14:42:58;;;;;;;0.50;0.13;;;;;;;26.87;100.00;99061.56;10409140;28;20061;-85
2023/10/19 14:48:03;;;;;;;0.10;0.10;;;;;;;27.10;100.00;99056.41;10408444;28;20060;-85
2023/10/19 14:53:05;;;;;;;0.73;0.43;;;;;;;26.38;100.00;99043.88;10408729;28;20053;-84
2023/10/19 14:58:08;;;;;;;0.30;0.20;;;;;;;27.52;100.00;99030.44;10410266;28;20072;-85
2023/10/19 15:03:10;;;;;;;0.32;0.30;;;;;;;27.26;100.00;99023.56;10392304;28;20469;-84
2023/10/19 15:08:12;;;;;;;0.30;0.10;;;;;;;27.50;100.00;99011.22;10402430;28;20049;-85
2023/10/19 15:13:15;;;;;;;0.52;0.52;;;;;;;27.30;100.00;99014.44;10391052;28;20057;-85
2023/10/19 15:18:18;;;;;;;0.30;0.15;;;;;;;26.80;100.00;99015.41;10402141;28;20041;-85
2023/10/19 15:23:20;;;;;;;0.00;0.00;;;;;;;27.85;100.00;99010.31;10394055;28;20050;-85
2023/10/19 15:28:23;;;;;;;0.73;0.10;;;;;;;27.90;100.00;99011.78;10412402;28;20037;-85
2023/10/19 15:33:24;;;;;;;0.00;0.00;;;;;;;26.91;100.00;99011.97;10390545;28;20144;-84
2023/10/19 15:38:26;;;;;;;0.00;0.00;;;;;;;26.65;100.00;99011.19;10411642;28;20084;-85
2023/10/19 15:43:28;;;;;;;0.80;0.25;;;;;;;27.51;100.00;99006.75;10395280;28;20489;-85
2023/10/19 15:48:34;;;;;;;2.53;0.52;;;;;;;27.07;100.00;98999.34;10410602;28;20053;-84
2023/10/19 15:53:36;;;;;;;0.30;0.30;;;;;;;27.77;100.00;99001.31;10411116;28;20054;-85
2023/10/19 15:58:37;;;;;;;0.20;0.10;;;;;;;26.65;100.00;99000.63;10409865;28;20033;-85
2023/10/19 16:03:39;;;;;;;0.13;0.13;;;;;;;28.27;100.00;98979.81;10381730;28;20103;-85
2023/10/19 16:08:41;;;;;;;0.05;0.03;;;;;;;26.89;100.00;98964.53;10389194;28;20065;-82
2023/10/19 16:13:44;;;;;;;0.15;0.10;;;;;;;26.27;100.00;98962.81;10409958;28;20041;-85
2023/10/19 16:18:46;;;;;;;0.20;0.10;;;;;;;26.55;100.00;98964.28;10416874;28;20056;-85
2023/10/19 16:23:48;;;;;;;0.15;0.08;;;;;;;26.54;100.00;98964.41;10403032;28;20046;-85
2023/10/19 16:28:50;;;;;;;0.40;0.35;;;;;;;26.34;100.00;98968.47;10416693;28;20038;-84
2023/10/19 16:33:53;;;;;;;5.38;0.20;;;;;;;27.16;100.00;98955.53;10402063;28;20048;-85
2023/10/19 16:38:54;;;;;;;0.03;0.03;;;;;;;26.65;100.00;98961.00;10403224;28;20069;-84
2023/10/19 16:43:56;;;;;;;0.00;0.00;;;;;;;27.00;100.00;98954.97;10408790;28;20091;-84
2023/10/19 16:48:58;;;;;;;0.10;0.10;;;;;;;27.14;100.00;98946.03;10386803;28;20041;-84
2023/10/19 16:53:59;;;;;;;0.00;0.00;;;;;;;26.43;100.00;98947.56;10408294;28;20050;-83
2023/10/19 16:59:01;;;;;;;0.17;0.15;;;;;;;26.15;100.00;98953.94;10416907;28;20038;-84
2023/10/19 17:04:04;;;;;;;0.35;0.35;;;;;;;26.24;100.00;98957.72;10397821;28;20049;-84
2023/10/19 17:09:19;;;;;;;0.20;0.20;;;;;;;26.44;100.00;98959.78;10385055;28;20397;-83
2023/10/19 17:14:21;;;;;;;0.43;0.03;;;;;;;25.78;100.00;98967.03;10416679;28;20104;-84
2023/10/19 17:19:25;;;;;;;0.35;0.28;;;;;;;25.82;100.00;98979.03;10403428;28;20046;-84
2023/10/19 17:24:28;;;;;;;0.00;0.00;;;;;;;26.78;100.00;98972.41;10399726;28;20346;-84
2023/10/19 17:29:30;;;;;;;0.85;0.38;;;;;;;26.27;100.00;98963.63;10393149;28;20050;-84
2023/10/19 17:34:32;;;;;;;2.63;0.40;;;;;;;26.87;100.00;98966.44;10412762;28;20136;-85
2023/10/19 17:39:34;;;;;;;0.10;0.10;;;;;;;26.14;100.00;98970.72;10407292;28;20045;-84
2023/10/19 17:44:36;;;;;;;0.00;0.00;;;;;;;26.42;100.00;98968.78;10406008;28;20057;-85
2023/10/19 17:49:37;;;;;;;0.00;0.00;;;;;;;26.36;100.00;98966.56;10399629;28;20081;-85
2023/10/19 17:54:39;;;;;;;0.10;0.10;;;;;;;26.13;100.00;98967.25;10397944;28;20045;-84
2023/10/19 17:59:41;;;;;;;1.02;0.20;;;;;;;26.71;100.00;98950.00;10397845;28;20381;-84
2023/10/19 18:04:44;;;;;;;0.03;0.00;;;;;;;26.19;100.00;98939.56;10409925;28;20117;-84
2023/10/19 18:09:47;;;;;;;0.32;0.10;;;;;;;25.93;100.00;98934.31;10392072;28;20041;-84
2023/10/19 18:14:49;;;;;;;0.40;0.22;;;;;;;27.12;100.00;98932.94;10413288;28;20115;-84
2023/10/19 18:19:51;;;;;;;0.10;0.10;;;;;;;26.94;100.00;98914.00;10395377;28;20041;-84
2023/10/19 18:24:53;;;;;;;0.00;0.00;;;;;;;26.77;100.00;98912.59;10382427;28;20045;-84
2023/10/19 18:29:55;;;;;;;0.20;0.10;;;;;;;25.89;100.00;98906.44;10394723;28;20055;-84
2023/10/19 18:34:57;;;;;;;0.00;0.00;;;;;;;25.51;100.00;98891.47;10393493;28;20057;-83
2023/10/19 18:39:59;;;;;;;0.32;0.22;;;;;;;25.74;100.00;98883.78;10389831;28;20513;-84
2023/10/19 18:45:04;;;;;;;0.32;0.30;;;;;;;25.39;100.00;98876.50;10424324;28;20120;-84
2023/10/19 18:50:08;;;;;;;0.10;0.10;;;;;;;25.06;100.00;98896.25;10392074;28;20079;-84
2023/10/19 18:55:31;;;;;;;0.35;0.35;;;;;;;25.24;100.00;98899.44;10385149;28;20046;-85
2023/10/19 19:00:33;;;;;;;0.10;0.03;;;;;;;24.54;100.00;98906.56;10392562;28;20045;-84
2023/10/19 19:05:39;;;;;;;0.25;0.17;;;;;;;25.05;100.00;98894.56;10411840;28;20053;-84
2023/10/19 19:10:41;;;;;;;0.88;0.30;;;;;;;24.69;100.00;98889.81;10402958;28;20049;-83
2023/10/19 19:15:44;;;;;;;0.00;0.00;;;;;;;24.82;100.00;98889.03;10411978;28;20135;-84
2023/10/19 19:20:46;;;;;;;1.05;0.73;;;;;;;24.39;100.00;98892.59;10395580;28;20052;-84
2023/10/19 19:25:49;;;;;;;0.30;0.30;;;;;;;24.29;100.00;98876.56;10407801;28;20520;-83
2023/10/19 19:30:51;;;;;;;0.35;0.35;;;;;;;24.54;100.00;98864.44;10384945;28;20046;-83
2023/10/19 19:35:53;;;;;;;0.03;0.03;;;;;;;24.77;100.00;98859.50;10388240;28;20045;-84
2023/10/19 19:40:55;;;;;;;0.30;0.10;;;;;;;24.98;100.00;98858.06;10410286;28;20137;-84
2023/10/19 19:45:58;;;;;;;0.10;0.10;;;;;;;25.03;100.00;98848.09;10389121;28;20053;-84
2023/10/19 19:50:59;;;;;;;0.45;0.30;;;;;;;25.68;100.00;98845.50;10393240;28;20451;-83
2023/10/19 19:56:03;;;;;;;0.25;0.20;;;;;;;24.03;100.00;98860.63;10415390;28;20415;-84
2023/10/19 20:01:06;;;;;;;0.73;0.32;;;;;;;25.11;100.00;98846.72;10400463;28;20258;-84
2023/10/19 20:06:09;;;;;;;1.08;0.40;;;;;;;24.81;100.00;98832.03;10406617;28;20049;-82
2023/10/19 20:11:17;;;;;;;0.63;0.20;;;;;;;24.73;100.00;98832.53;10395083;28;20145;-84
2023/10/19 20:16:20;;;;;;;0.20;0.20;;;;;;;24.67;100.00;98844.31;10398728;28;20045;-83
2023/10/19 20:21:22;;;;;;;0.43;0.20;;;;;;;24.95;100.00;98845.13;10388391;28;20099;-84
2023/10/19 20:26:24;;;;;;;0.22;0.22;;;;;;;24.78;100.00;98862.06;10392359;28;20041;-84
2023/10/19 20:31:25;;;;;;;0.63;0.30;;;;;;;25.26;100.00;98869.41;10418795;28;20049;-84
2023/10/19 20:36:29;;;;;;;0.00;0.00;;;;;;;25.37;100.00;98862.53;10408098;28;20133;-84
2023/10/19 20:41:31;;;;;;;0.43;0.30;;;;;;;24.69;100.00;98868.75;10396569;28;20057;-85
2023/10/19 20:46:33;;;;;;;0.15;0.15;;;;;;;25.42;100.00;98855.22;10402239;28;20061;-85
2023/10/19 20:51:35;;;;;;;0.40;0.40;;;;;;;24.91;100.00;98856.78;10392257;28;20049;-85
2023/10/19 20:56:38;;;;;;;0.30;0.20;;;;;;;25.15;100.00;98845.56;10400119;28;20050;-84
2023/10/19 21:01:39;;;;;;;0.63;0.32;;;;;;;24.58;100.00;98815.06;10397348;28;20084;-84
2023/10/19 21:06:42;;;;;;;1.50;0.90;;;;;;;24.04;100.00;98798.38;10405138;28;20045;-84
2023/10/19 21:11:44;;;;;;;0.65;0.47;;;;;;;24.82;100.00;98800.31;10409657;28;20049;-85
2023/10/19 21:16:46;;;;;;;0.20;0.20;;;;;;;25.46;100.00;98788.16;10394015;28;20412;-85
2023/10/19 21:21:48;;;;;;;0.25;0.20;;;;;;;24.29;100.00;98783.59;10384403;28;20049;-84
2023/10/19 21:26:49;;;;;;;1.17;0.93;;;;;;;24.65;100.00;98776.88;10404638;28;20473;-84
2023/10/19 21:31:51;;;;;;;0.17;0.10;;;;;;;24.36;100.00;98772.59;10404354;28;20089;-85
2023/10/19 21:36:53;;;;;;;0.52;0.52;;;;;;;24.94;100.00;98767.03;10406684;28;20037;-85
2023/10/19 21:41:54;;;;;;;0.17;0.17;;;;;;;24.68;100.00;98761.78;10398496;28;20483;-85
2023/10/19 21:46:56;;;;;;;0.10;0.10;;;;;;;24.93;100.00;98772.44;10409991;28;20527;-84
2023/10/19 21:51:58;;;;;;;0.85;0.10;;;;;;;24.61;100.00;98755.16;10404453;28;20071;-85
2023/10/19 21:56:59;;;;;;;0.10;0.10;;;;;;;24.60;100.00;98750.00;10401744;28;20041;-85
2023/10/19 22:02:01;;;;;;;1.10;0.45;;;;;;;24.74;100.00;98746.50;10413082;28;20126;-84
2023/10/19 22:07:05;;;;;;;0.88;0.70;;;;;;;23.69;100.00;98740.91;10410615;28;20045;-85
2023/10/19 22:12:07;;;;;;;0.88;0.52;;;;;;;23.09;100.00;98727.03;10389996;28;20059;-85
2023/10/19 22:17:09;;;;;;;0.55;0.30;;;;;;;23.10;100.00;98719.09;10391618;28;20075;-84
2023/10/19 22:22:11;;;;;;;0.13;0.13;;;;;;;22.87;100.00;98706.50;10380505;28;20046;-84
2023/10/19 22:27:16;;;;;;;0.30;0.30;;;;;;;23.71;100.00;98710.13;10394014;28;20055;-83
2023/10/19 22:32:18;;;;;;;0.30;0.30;;;;;;;23.68;100.00;98713.78;10408038;28;20400;-85
2023/10/19 22:37:20;;;;;;;0.70;0.60;;;;;;;23.32;100.00;98709.91;10403435;28;20042;-85
2023/10/19 22:42:22;;;;;;;0.85;0.85;;;;;;;23.88;100.00;98696.75;10394181;28;20069;-85
2023/10/19 22:47:24;;;;;;;1.70;0.82;;;;;;;24.76;100.00;98710.38;10392499;28;20077;-85
2023/10/19 22:52:27;;;;;;;0.85;0.55;;;;;;;23.97;100.00;98711.09;10404040;28;20053;-84
2023/10/19 22:57:29;;;;;;;1.05;0.40;;;;;;;23.81;100.00;98729.63;10373177;28;20081;-84
2023/10/19 23:02:30;;;;;;;0.80;0.70;;;;;;;24.22;100.00;98733.19;10388826;28;20603;-85
2023/10/19 23:07:32;;;;;;;0.70;0.65;;;;;;;23.75;100.00;98736.13;10401186;28;20041;-85
2023/10/19 23:12:34;;;;;;;1.13;0.75;;;;;;;22.92;100.00;98734.19;10382735;28;20054;-85
2023/10/19 23:17:42;;;;;;;1.15;0.70;;;;;;;23.42;100.00;98721.53;10391610;28;20050;-85
2023/10/19 23:22:45;;;;;;;0.30;0.30;;;;;;;23.84;100.00;98712.81;10410126;28;20125;-85
2023/10/19 23:27:46;;;;;;;1.40;0.57;;;;;;;23.52;100.00;98713.06;10384715;28;20042;-85
2023/10/19 23:32:48;;;;;;;0.68;0.57;;;;;;;23.71;100.00;98703.09;10402726;28;20054;-85
2023/10/19 23:37:50;;;;;;;0.28;0.28;;;;;;;22.84;100.00;98698.78;10379475;28;20052;-84
2023/10/19 23:42:52;;;;;;;1.25;0.55;;;;;;;23.23;100.00;98677.16;10400800;28;20065;-84